Time;durP1;ratioP1;P1;durP2;ratioP2;P2;SDS_P1;SDS_P2;PMS_P1;PMS_P2;Temp;Humidity;BMP_temperature;BMP_pressure;BME280_temperature;BME280_humidity;BME280_pressure;Samples;Min_cycle;Max_cycle;Signal;HPM_P1;HPM_P2
2023/04/27 00:03:22;;;;;;;8.43;4.90;;;;;;;2.61;100.00;101814.97;5092262;28;20381;-73
2023/04/27 00:12:44;;;;;;;11.82;5.18;;;;;;;2.60;100.00;101814.13;5092292;28;20047;-73
2023/04/27 00:18:31;;;;;;;11.75;5.80;;;;;;;2.61;100.00;101825.53;5092079;28;20176;-73
2023/04/27 00:24:18;;;;;;;9.02;5.38;;;;;;;2.53;100.00;101818.28;5091487;28;20054;-73
2023/04/27 00:30:06;;;;;;;8.40;5.47;;;;;;;2.38;100.00;101817.03;5095520;28;20122;-73
2023/04/27 00:32:32;;;;;;;10.10;5.05;;;;;;;2.32;100.00;101823.69;5077258;28;20516;-73
2023/04/27 00:34:57;;;;;;;10.10;5.43;;;;;;;2.18;100.00;101813.50;5090597;28;20083;-73
2023/04/27 00:40:44;;;;;;;7.72;4.93;;;;;;;2.04;100.00;101827.09;5090561;28;20578;-73
2023/04/27 00:46:35;;;;;;;11.60;5.18;;;;;;;2.03;100.00;101815.69;5094821;28;20591;-73
2023/04/27 00:49:00;;;;;;;11.18;5.35;;;;;;;2.02;100.00;101819.28;5062971;28;20048;-73
2023/04/27 00:51:27;;;;;;;9.43;5.18;;;;;;;2.02;100.00;101815.81;5094706;28;20028;-73
2023/04/27 00:53:52;;;;;;;10.95;6.10;;;;;;;1.98;100.00;101815.25;5071952;28;20119;-73
2023/04/27 00:56:18;;;;;;;12.57;5.60;;;;;;;1.91;100.00;101810.63;5076587;28;20063;-73
2023/04/27 00:58:43;;;;;;;8.88;5.10;;;;;;;1.95;100.00;101818.16;5094969;28;20024;-73
2023/04/27 01:04:31;;;;;;;8.30;4.85;;;;;;;1.94;100.00;101808.56;5094881;28;20074;-73
2023/04/27 01:06:56;;;;;;;10.85;5.75;;;;;;;2.01;100.00;101811.50;5071795;28;20624;-73
2023/04/27 01:09:21;;;;;;;12.50;6.15;;;;;;;1.96;100.00;101814.53;5094693;28;20111;-73
2023/04/27 01:15:09;;;;;;;9.63;5.43;;;;;;;1.90;100.00;101808.97;5094962;28;20047;-73
2023/04/27 01:17:34;;;;;;;9.65;5.13;;;;;;;1.88;100.00;101819.66;5094353;28;20391;-73
2023/04/27 01:20:01;;;;;;;11.10;5.35;;;;;;;1.80;100.00;101820.34;5089704;28;20106;-73
2023/04/27 01:25:48;;;;;;;8.02;5.15;;;;;;;1.74;100.00;101825.31;5090167;28;20428;-73
2023/04/27 01:28:13;;;;;;;9.98;5.60;;;;;;;1.75;100.00;101827.81;5094105;28;20028;-73
2023/04/27 01:30:38;;;;;;;10.25;5.40;;;;;;;1.72;100.00;101821.94;5076557;28;20431;-73
2023/04/27 01:33:03;;;;;;;14.43;6.90;;;;;;;1.72;100.00;101822.78;5088958;28;20044;-73
2023/04/27 01:35:29;;;;;;;12.00;6.15;;;;;;;1.71;100.00;101815.84;5094032;28;20430;-73
2023/04/27 01:37:56;;;;;;;11.93;6.25;;;;;;;1.74;100.00;101812.97;5094024;28;20028;-73
2023/04/27 01:40:21;;;;;;;9.95;5.90;;;;;;;1.73;100.00;101819.16;5089451;28;20097;-73
2023/04/27 01:46:11;;;;;;;10.05;5.60;;;;;;;1.77;100.00;101814.50;5094445;28;20050;-73
2023/04/27 01:51:58;;;;;;;15.38;6.15;;;;;;;1.67;100.00;101808.31;5090264;28;20046;-73
2023/04/27 01:57:46;;;;;;;12.27;6.32;;;;;;;1.57;100.00;101803.03;5094099;28;20113;-73
2023/04/27 02:00:11;;;;;;;10.43;5.85;;;;;;;1.48;100.00;101803.81;5075574;28;20062;-73
2023/04/27 02:02:37;;;;;;;10.57;6.28;;;;;;;1.42;100.00;101807.78;5093603;28;20074;-73
2023/04/27 02:05:03;;;;;;;13.20;6.40;;;;;;;1.40;100.00;101804.44;5088904;28;20048;-73
2023/04/27 02:07:28;;;;;;;13.48;6.20;;;;;;;1.40;100.00;101798.34;5093658;28;20020;-73
2023/04/27 02:09:53;;;;;;;10.35;6.45;;;;;;;1.40;100.00;101791.28;5093449;28;20038;-73
2023/04/27 02:12:19;;;;;;;11.75;6.30;;;;;;;1.41;100.00;101800.00;5089017;28;20075;-73
2023/04/27 02:14:44;;;;;;;11.68;6.25;;;;;;;1.35;100.00;101797.91;5093370;28;20036;-73
2023/04/27 02:20:32;;;;;;;9.40;5.75;;;;;;;1.33;100.00;101807.75;5093724;28;20078;-73
2023/04/27 02:22:57;;;;;;;12.13;5.05;;;;;;;1.27;100.00;101793.28;5093566;28;20024;-73
2023/04/27 02:25:22;;;;;;;11.65;6.57;;;;;;;1.23;100.00;101798.00;5088639;28;20040;-73
2023/04/27 02:27:47;;;;;;;12.30;6.80;;;;;;;1.16;100.00;101793.38;5093146;28;20129;-72
2023/04/27 02:30:13;;;;;;;9.30;5.90;;;;;;;1.11;100.00;101795.53;5088984;28;20378;-73
2023/04/27 02:32:39;;;;;;;10.30;5.50;;;;;;;1.12;100.00;101781.41;5074622;28;20044;-73
2023/04/27 02:35:06;;;;;;;14.13;5.93;;;;;;;1.08;100.00;101775.56;5093096;28;20047;-73
2023/04/27 02:37:32;;;;;;;11.52;5.80;;;;;;;1.12;100.00;101776.13;5070818;28;20481;-73
2023/04/27 02:39:58;;;;;;;10.02;6.25;;;;;;;1.14;100.00;101779.47;5075214;28;20027;-73
2023/04/27 02:42:23;;;;;;;20.45;7.53;;;;;;;1.12;100.00;101771.72;5092871;28;20040;-73
2023/04/27 02:44:48;;;;;;;11.05;6.25;;;;;;;1.18;100.00;101781.75;5069916;28;20038;-73
2023/04/27 02:47:14;;;;;;;11.63;6.13;;;;;;;1.06;100.00;101758.22;5092962;28;20032;-73
2023/04/27 02:49:39;;;;;;;10.07;6.00;;;;;;;1.15;100.00;101778.50;5070870;28;20044;-73
2023/04/27 02:52:05;;;;;;;10.45;6.00;;;;;;;1.11;100.00;101774.47;5092159;28;20047;-73
2023/04/27 02:54:30;;;;;;;13.98;6.85;;;;;;;1.07;100.00;101776.53;5092958;28;20119;-73
2023/04/27 02:56:56;;;;;;;12.52;5.85;;;;;;;1.05;100.00;101786.38;5088224;28;20052;-73
2023/04/27 02:59:21;;;;;;;13.93;6.00;;;;;;;1.09;100.00;101794.84;5074661;28;20418;-73
2023/04/27 03:01:47;;;;;;;13.52;6.70;;;;;;;1.08;100.00;101790.53;5092947;28;20058;-73
2023/04/27 03:04:16;;;;;;;12.90;6.38;;;;;;;1.07;100.00;101783.59;5088368;28;20032;-73
2023/04/27 03:06:42;;;;;;;14.57;6.80;;;;;;;1.03;100.00;101782.19;5092662;28;20024;-73
2023/04/27 03:09:09;;;;;;;11.20;6.15;;;;;;;1.06;100.00;101777.50;5069885;28;20075;-73
2023/04/27 03:11:34;;;;;;;13.93;6.78;;;;;;;1.11;100.00;101785.00;5092648;28;20495;-73
2023/04/27 03:14:00;;;;;;;9.10;5.82;;;;;;;1.04;100.00;101765.44;5074244;28;20028;-73
2023/04/27 03:19:48;;;;;;;15.02;6.25;;;;;;;1.01;100.00;101779.69;5092720;28;20055;-73
2023/04/27 03:22:13;;;;;;;12.63;6.43;;;;;;;1.04;100.00;101783.84;5088020;28;20047;-73
2023/04/27 03:28:00;;;;;;;12.93;6.47;;;;;;;1.03;100.00;101785.66;5092339;28;20061;-73
2023/04/27 03:30:25;;;;;;;17.08;6.63;;;;;;;0.96;100.00;101781.03;5087856;28;20028;-73
2023/04/27 03:32:51;;;;;;;16.00;7.13;;;;;;;0.98;100.00;101787.84;5092199;28;20570;-73
2023/04/27 03:35:16;;;;;;;14.75;7.55;;;;;;;0.97;100.00;101794.06;5087747;28;20036;-73
2023/04/27 03:37:43;;;;;;;14.25;6.90;;;;;;;1.00;100.00;101793.81;5092378;28;20492;-73
2023/04/27 03:40:09;;;;;;;13.38;7.30;;;;;;;1.05;100.00;101802.16;5092497;28;20028;-73
2023/04/27 03:42:34;;;;;;;14.65;7.00;;;;;;;1.00;100.00;101800.88;5069673;28;20051;-73
2023/04/27 03:44:59;;;;;;;14.68;7.30;;;;;;;0.95;100.00;101793.38;5092232;28;20039;-73
2023/04/27 03:50:47;;;;;;;14.88;6.75;;;;;;;0.97;100.00;101799.34;5092272;28;20051;-73
2023/04/27 03:53:13;;;;;;;13.80;7.35;;;;;;;0.93;100.00;101793.50;5074380;28;20016;-73
2023/04/27 03:55:40;;;;;;;16.60;7.90;;;;;;;0.95;100.00;101800.44;5071473;28;20051;-73
2023/04/27 03:58:05;;;;;;;15.27;7.95;;;;;;;0.93;100.00;101801.41;5095800;28;20028;-73
2023/04/27 13:02:30;;;;;;;8.43;6.10;;;;;;;18.50;30.67;101699.84;5094717;28;20054;-73
2023/04/27 13:04:55;;;;;;;7.95;6.30;;;;;;;19.23;30.83;101695.31;5076848;28;20055;-72
2023/04/27 13:07:20;;;;;;;10.88;6.25;;;;;;;18.94;30.25;101681.06;5076351;28;20024;-73
2023/04/27 13:09:45;;;;;;;9.65;6.22;;;;;;;18.73;30.73;101693.50;5072202;28;20085;-73
2023/04/27 13:12:12;;;;;;;8.87;6.10;;;;;;;18.56;32.53;101698.91;5076575;28;20024;-73
2023/04/27 13:14:38;;;;;;;11.30;7.80;;;;;;;17.97;33.96;101686.75;5089843;28;20829;-73
2023/04/27 13:17:04;;;;;;;8.98;6.30;;;;;;;18.01;33.31;101683.31;5094599;28;20024;-74
2023/04/27 13:19:30;;;;;;;10.17;6.47;;;;;;;17.61;33.24;101684.13;5094351;28;20444;-73
2023/04/27 13:21:55;;;;;;;7.70;6.70;;;;;;;17.07;34.38;101685.44;5071803;28;20285;-73
2023/04/27 13:24:21;;;;;;;9.63;6.38;;;;;;;16.67;32.76;101683.41;5076421;28;20036;-72
2023/04/27 13:26:46;;;;;;;7.78;6.65;;;;;;;16.49;34.71;101674.59;5071578;28;20497;-73
2023/04/27 13:32:33;;;;;;;11.68;6.75;;;;;;;16.24;33.07;101670.19;5087155;28;20069;-73
2023/04/27 13:34:58;;;;;;;9.38;6.53;;;;;;;15.93;33.02;101668.56;5074513;28;20460;-73
2023/04/27 13:38:02;;;;;;;8.15;6.05;;;;;;;15.91;35.99;101656.38;5094197;28;20028;-73
2023/04/27 13:40:28;;;;;;;8.90;6.90;;;;;;;15.82;35.25;101655.03;5089618;28;20408;-73
2023/04/27 13:42:53;;;;;;;12.38;6.88;;;;;;;15.97;36.30;101656.25;5076708;28;20032;-73
2023/04/27 13:45:19;;;;;;;10.60;6.38;;;;;;;16.16;38.76;101656.19;5071733;28;20075;-72
2023/04/27 13:54:27;;;;;;;9.00;6.22;;;;;;;15.28;37.69;101644.06;5093846;28;20149;-73
2023/04/27 13:56:53;;;;;;;9.30;6.60;;;;;;;15.14;35.73;101631.81;5072153;28;20131;-73
2023/04/27 13:59:18;;;;;;;9.18;6.70;;;;;;;15.32;37.15;101630.94;5075115;28;20039;-73
2023/04/27 14:01:43;;;;;;;8.38;6.10;;;;;;;15.32;35.11;101630.94;5075686;28;20032;-73
2023/04/27 14:04:09;;;;;;;8.40;6.25;;;;;;;15.37;36.25;101615.78;5071399;28;20047;-73
2023/04/27 14:06:35;;;;;;;8.63;5.70;;;;;;;15.71;36.50;101617.00;5093990;28;20540;-73
2023/04/27 14:09:00;;;;;;;7.50;5.75;;;;;;;15.71;35.27;101621.56;5073337;28;20107;-73
2023/04/27 14:11:25;;;;;;;9.07;6.90;;;;;;;15.45;34.90;101615.44;5073546;28;20476;-73
2023/04/27 14:17:12;;;;;;;8.70;6.22;;;;;;;15.87;35.88;101615.50;5089783;28;20090;-73
2023/04/27 14:19:37;;;;;;;9.27;6.77;;;;;;;15.82;35.74;101609.19;5075251;28;20016;-73
2023/04/27 14:22:05;;;;;;;8.83;6.33;;;;;;;15.45;37.71;101603.84;5088972;28;20370;-73
2023/04/27 14:24:30;;;;;;;8.73;6.20;;;;;;;15.04;36.09;101594.63;5075363;28;20618;-73
2023/04/27 14:26:55;;;;;;;7.80;6.60;;;;;;;15.04;36.66;101591.94;5090395;28;20028;-73
2023/04/27 14:29:22;;;;;;;10.10;7.30;;;;;;;15.14;39.57;101586.81;5091939;28;20115;-73
2023/04/27 14:35:09;;;;;;;11.20;6.38;;;;;;;15.15;36.72;101580.38;5088885;28;20048;-73
2023/04/27 14:37:34;;;;;;;10.07;7.07;;;;;;;14.95;36.51;101589.75;5093281;28;20020;-73
2023/04/27 14:40:00;;;;;;;8.98;6.85;;;;;;;15.00;38.43;101593.41;5069879;28;20040;-73
2023/04/27 14:42:26;;;;;;;13.30;7.28;;;;;;;14.92;39.69;101571.34;5075166;28;20053;-74
2023/04/27 14:44:51;;;;;;;10.63;7.00;;;;;;;14.90;37.66;101581.50;5089090;28;20080;-73
2023/04/27 14:50:39;;;;;;;8.18;6.40;;;;;;;14.76;40.85;101562.00;5091181;28;20075;-74
2023/04/27 14:53:04;;;;;;;12.10;7.22;;;;;;;14.94;40.21;101548.53;5056011;28;20135;-73
2023/04/27 14:55:30;;;;;;;9.07;6.43;;;;;;;15.11;38.92;101546.88;5093234;28;20564;-74
2023/04/27 14:57:55;;;;;;;11.32;7.53;;;;;;;15.27;38.86;101558.06;5070464;28;20059;-72
2023/04/27 15:00:21;;;;;;;8.82;6.93;;;;;;;15.32;36.43;101559.00;5074998;28;20077;-73
2023/04/27 15:02:46;;;;;;;13.70;7.28;;;;;;;15.03;38.42;101563.31;5088324;28;20675;-72
2023/04/27 15:05:11;;;;;;;11.95;7.60;;;;;;;14.86;36.96;101562.28;5074743;28;20028;-72
2023/04/27 15:07:37;;;;;;;10.38;6.78;;;;;;;14.67;38.62;101566.03;5092746;28;20039;-73
2023/04/27 15:10:02;;;;;;;8.10;6.80;;;;;;;14.64;37.41;101566.47;5088352;28;20044;-73
2023/04/27 15:12:28;;;;;;;9.82;6.88;;;;;;;14.71;39.25;101568.03;5074988;28;20401;-73
2023/04/27 15:14:54;;;;;;;12.70;7.45;;;;;;;14.64;38.30;101564.59;5087982;28;20049;-73
2023/04/27 15:17:19;;;;;;;12.20;6.88;;;;;;;14.59;36.72;101561.75;5074478;28;20369;-73
2023/04/27 15:19:44;;;;;;;9.88;7.20;;;;;;;14.50;39.23;101558.53;5074585;28;20035;-73
2023/04/27 15:25:31;;;;;;;8.90;6.88;;;;;;;14.18;37.74;101546.19;5092938;28;20290;-73
2023/04/27 15:27:57;;;;;;;10.88;8.10;;;;;;;14.22;39.14;101553.59;5070054;28;20052;-74
2023/04/27 15:30:22;;;;;;;10.20;7.13;;;;;;;14.16;39.61;101549.06;5074423;28;20384;-73
2023/04/27 15:32:48;;;;;;;12.48;7.55;;;;;;;14.12;38.31;101542.50;5087490;28;20037;-74
2023/04/27 15:38:35;;;;;;;11.75;7.15;;;;;;;14.01;42.83;101537.00;5083629;28;20047;-73
2023/04/27 15:41:00;;;;;;;17.42;7.93;;;;;;;13.81;39.80;101532.59;5074348;28;20020;-73
2023/04/27 15:43:25;;;;;;;12.00;7.43;;;;;;;13.91;41.71;101538.34;5092658;28;20114;-73
2023/04/27 15:45:51;;;;;;;12.85;7.50;;;;;;;13.97;41.80;101539.31;5087970;28;20485;-73
2023/04/27 15:48:16;;;;;;;9.50;7.32;;;;;;;14.14;40.60;101528.81;5074451;28;20031;-74
2023/04/27 15:50:43;;;;;;;10.35;7.28;;;;;;;14.20;39.61;101514.50;5087973;28;20091;-73
2023/04/27 15:53:08;;;;;;;10.57;6.70;;;;;;;14.20;43.13;101503.75;5096180;28;20024;-73
2023/04/27 15:55:34;;;;;;;9.82;7.80;;;;;;;14.28;40.95;101519.59;5095991;28;20020;-73
2023/04/27 15:57:59;;;;;;;10.40;8.02;;;;;;;14.02;40.59;101520.66;5073262;28;20077;-73
2023/04/27 16:00:25;;;;;;;11.02;7.50;;;;;;;13.83;39.43;101519.78;5096077;28;20032;-73
2023/04/27 16:02:50;;;;;;;12.30;7.47;;;;;;;13.67;40.81;101519.50;5073154;28;20098;-74
2023/04/27 16:05:16;;;;;;;9.57;7.13;;;;;;;13.53;39.43;101516.06;5077352;28;20731;-73
2023/04/27 16:11:02;;;;;;;11.77;7.07;;;;;;;13.54;41.98;101490.84;5095864;28;20165;-73
2023/04/27 16:13:28;;;;;;;11.43;7.00;;;;;;;13.62;42.33;101491.41;5077648;28;20115;-73
2023/04/27 16:15:53;;;;;;;11.02;7.10;;;;;;;13.75;41.17;101487.78;5091003;28;20365;-73
2023/04/27 16:18:18;;;;;;;11.40;6.65;;;;;;;13.88;42.04;101487.69;5095630;28;20032;-73
2023/04/27 16:20:44;;;;;;;11.18;7.72;;;;;;;13.97;40.29;101496.31;5073109;28;20048;-74
2023/04/27 16:23:09;;;;;;;11.60;7.07;;;;;;;14.01;41.16;101480.53;5095786;28;20453;-73
2023/04/27 16:25:34;;;;;;;10.98;7.50;;;;;;;13.90;41.00;101482.09;5095489;28;20266;-73
2023/04/27 16:28:00;;;;;;;9.43;6.88;;;;;;;13.75;41.53;101478.91;5055995;28;20052;-73
2023/04/27 16:30:25;;;;;;;12.50;7.03;;;;;;;13.72;41.29;101468.59;5077413;28;20443;-73
2023/04/27 16:32:51;;;;;;;10.38;7.45;;;;;;;13.73;41.15;101468.38;5090861;28;20080;-73
2023/04/27 16:35:16;;;;;;;10.80;7.28;;;;;;;13.61;41.22;101465.59;5076588;28;20131;-73
2023/04/27 16:37:41;;;;;;;10.82;6.93;;;;;;;13.46;41.46;101451.63;5095418;28;20468;-73
2023/04/27 16:40:07;;;;;;;10.65;7.63;;;;;;;13.40;43.48;101452.50;5072906;28;20044;-73
2023/04/27 16:42:33;;;;;;;12.05;7.90;;;;;;;13.24;41.70;101459.22;5095394;28;20487;-73
2023/04/27 16:45:01;;;;;;;10.45;8.05;;;;;;;13.11;44.76;101445.84;5090910;28;20044;-73
2023/04/27 16:47:27;;;;;;;14.45;7.13;;;;;;;13.12;42.24;101449.34;5060689;28;20395;-74
2023/04/27 16:49:53;;;;;;;12.65;8.57;;;;;;;12.95;43.22;101447.16;5077081;28;20053;-73
2023/04/27 16:52:19;;;;;;;10.75;7.43;;;;;;;12.99;44.20;101450.25;5072796;28;20051;-73
2023/04/27 16:54:44;;;;;;;11.77;7.95;;;;;;;12.97;44.36;101441.56;5076741;28;20028;-73
2023/04/27 16:57:12;;;;;;;12.45;8.18;;;;;;;12.89;44.83;101437.28;5090457;28;20428;-73
2023/04/27 16:59:37;;;;;;;14.70;7.57;;;;;;;12.89;44.06;101434.59;5095100;28;20361;-73
2023/04/27 17:02:02;;;;;;;11.15;7.93;;;;;;;12.89;44.40;101431.09;5094907;28;20081;-73
2023/04/27 17:04:27;;;;;;;10.65;7.57;;;;;;;12.80;45.26;101429.72;5089650;28;20039;-74
2023/04/27 17:06:53;;;;;;;9.70;6.72;;;;;;;12.75;46.46;101427.66;5076713;28;20466;-73
2023/04/27 17:09:18;;;;;;;13.73;7.85;;;;;;;12.61;45.30;101415.34;5072122;28;20046;-73
2023/04/27 17:11:43;;;;;;;11.93;7.40;;;;;;;12.60;47.33;101424.41;5094922;28;20125;-73
2023/04/27 17:17:32;;;;;;;12.15;7.90;;;;;;;12.48;47.17;101426.97;5090810;28;20400;-73
2023/04/27 17:19:58;;;;;;;12.25;8.02;;;;;;;12.45;48.08;101429.25;5076764;28;20464;-73
2023/04/27 17:22:23;;;;;;;13.88;8.10;;;;;;;12.48;47.19;101431.50;5072447;28;20097;-73
2023/04/27 17:24:49;;;;;;;13.00;8.50;;;;;;;12.33;48.29;101416.47;5076686;28;20032;-73
2023/04/27 17:27:14;;;;;;;14.52;7.88;;;;;;;12.32;48.51;101430.09;5090239;28;20052;-73
2023/04/27 17:29:39;;;;;;;12.90;7.75;;;;;;;12.26;47.92;101428.25;5094743;28;20070;-73
2023/04/27 17:32:05;;;;;;;14.25;8.63;;;;;;;12.20;48.40;101427.25;5076467;28;20042;-73
2023/04/27 17:34:30;;;;;;;10.95;7.68;;;;;;;12.21;48.24;101431.56;5072189;28;20094;-73
2023/04/27 17:36:56;;;;;;;11.23;7.75;;;;;;;12.18;49.35;101413.22;5094325;28;20078;-73
2023/04/27 17:39:23;;;;;;;13.80;8.38;;;;;;;12.12;50.07;101418.59;5072172;28;20123;-73
2023/04/27 17:41:49;;;;;;;15.70;9.05;;;;;;;12.04;50.33;101404.38;5076505;28;20024;-73
2023/04/27 17:44:14;;;;;;;11.68;8.95;;;;;;;11.99;51.76;101398.84;5073031;28;20067;-73
2023/04/27 17:46:45;;;;;;;13.32;9.25;;;;;;;11.91;51.83;101396.38;5075516;28;20428;-73
2023/04/27 17:49:11;;;;;;;13.25;8.25;;;;;;;11.88;50.41;101402.16;5076415;28;20028;-73
2023/04/27 17:51:37;;;;;;;14.13;8.60;;;;;;;11.84;51.35;101392.88;5072130;28;20519;-73
2023/04/27 17:54:02;;;;;;;14.27;8.25;;;;;;;11.86;52.27;101398.88;5094084;28;20063;-73
2023/04/27 17:59:49;;;;;;;12.27;8.40;;;;;;;11.81;51.67;101395.16;5090350;28;20082;-73
2023/04/27 18:02:15;;;;;;;12.77;8.70;;;;;;;11.76;53.88;101396.56;5088972;28;20064;-73
2023/04/27 18:04:40;;;;;;;12.05;8.18;;;;;;;11.73;52.54;101388.13;5094082;28;20069;-74
2023/04/27 18:07:05;;;;;;;13.85;8.63;;;;;;;11.66;52.73;101388.13;5075792;28;20039;-73
2023/04/27 18:09:31;;;;;;;14.23;8.75;;;;;;;11.61;53.35;101395.16;5089466;28;20063;-73
2023/04/27 18:11:57;;;;;;;11.13;8.35;;;;;;;11.55;53.84;101383.38;5076124;28;20032;-73
2023/04/27 18:14:23;;;;;;;12.75;8.43;;;;;;;11.55;52.68;101390.59;5070832;28;20040;-73
2023/04/27 18:16:48;;;;;;;14.77;8.43;;;;;;;11.53;52.17;101393.47;5075940;28;20024;-72
2023/04/27 18:19:14;;;;;;;12.60;9.05;;;;;;;11.53;52.94;101392.66;5075849;28;20409;-73
2023/04/27 18:21:40;;;;;;;12.85;8.23;;;;;;;11.52;54.29;101397.19;5089079;28;20048;-72
2023/04/27 18:24:05;;;;;;;11.20;8.30;;;;;;;11.44;52.71;101387.53;5075555;28;20028;-73
2023/04/27 18:26:34;;;;;;;12.48;8.40;;;;;;;11.45;53.57;101391.03;5071456;28;20048;-74
2023/04/27 18:28:59;;;;;;;15.15;8.93;;;;;;;11.40;54.82;101397.00;5075749;28;20383;-72
2023/04/27 18:31:24;;;;;;;13.18;8.65;;;;;;;11.39;55.55;101389.19;5075068;28;20032;-74
2023/04/27 18:33:50;;;;;;;15.37;8.47;;;;;;;11.33;54.07;101392.69;5071061;28;20040;-73
2023/04/27 18:39:37;;;;;;;15.73;8.73;;;;;;;11.31;55.00;101410.81;5093926;28;20047;-73
2023/04/27 18:42:02;;;;;;;12.60;8.63;;;;;;;11.29;55.21;101404.84;5093636;28;20024;-73
2023/04/27 18:44:28;;;;;;;11.90;8.68;;;;;;;11.24;53.78;101404.59;5089636;28;20044;-73
2023/04/27 18:46:53;;;;;;;13.88;9.00;;;;;;;11.24;55.74;101394.72;5074615;28;20032;-74
2023/04/27 18:52:40;;;;;;;15.93;8.80;;;;;;;11.20;54.32;101393.47;5093382;28;20634;-73
2023/04/27 18:55:07;;;;;;;15.88;8.65;;;;;;;11.14;54.31;101399.66;5075334;28;20036;-73
2023/04/27 18:57:32;;;;;;;13.75;9.15;;;;;;;11.15;55.62;101407.47;5070928;28;20040;-73
2023/04/27 18:59:59;;;;;;;14.50;8.70;;;;;;;11.10;54.65;101407.28;5075188;28;20046;-73
2023/04/27 19:05:46;;;;;;;13.93;8.60;;;;;;;11.04;56.81;101405.41;5093967;28;20047;-73
2023/04/27 19:08:11;;;;;;;15.18;8.25;;;;;;;11.01;56.43;101399.66;5074873;28;20125;-73
2023/04/27 19:10:40;;;;;;;12.70;8.95;;;;;;;10.96;56.57;101392.19;5070652;28;20131;-73
2023/04/27 19:13:05;;;;;;;13.15;8.43;;;;;;;10.98;56.58;101402.69;5074833;28;20115;-73
2023/04/27 19:15:30;;;;;;;14.13;8.73;;;;;;;10.94;56.92;101393.44;5088445;28;20165;-73
2023/04/27 19:17:55;;;;;;;15.05;9.02;;;;;;;10.86;55.71;101387.25;5092899;28;20350;-73
2023/04/27 19:20:21;;;;;;;11.77;8.07;;;;;;;10.83;57.30;101386.84;5074960;28;20035;-73
2023/04/27 19:22:46;;;;;;;14.32;8.27;;;;;;;10.91;56.07;101393.84;5088066;28;20063;-73
2023/04/27 19:25:12;;;;;;;12.43;7.95;;;;;;;10.92;56.65;101387.47;5092357;28;20024;-73
2023/04/27 19:27:37;;;;;;;12.82;8.00;;;;;;;10.82;57.83;101388.69;5070213;28;20039;-73
2023/04/27 19:33:24;;;;;;;12.05;8.88;;;;;;;10.75;58.22;101390.53;5092899;28;20074;-73
2023/04/27 19:35:51;;;;;;;12.07;8.38;;;;;;;10.72;58.72;101388.25;5092635;28;20049;-74
2023/04/27 19:38:16;;;;;;;12.60;8.32;;;;;;;10.70;58.70;101389.50;5074489;28;20106;-73
2023/04/27 19:40:41;;;;;;;13.35;8.60;;;;;;;10.63;59.80;101392.13;5070014;28;20527;-73
2023/04/27 19:46:29;;;;;;;12.25;7.88;;;;;;;10.60;60.59;101384.50;5092974;28;20043;-73
2023/04/27 19:48:54;;;;;;;14.30;8.27;;;;;;;10.49;61.03;101367.19;5074414;28;20046;-73
2023/04/27 19:51:20;;;;;;;12.55;7.80;;;;;;;10.49;61.30;101369.88;5069743;28;20064;-73
2023/04/27 19:53:45;;;;;;;12.50;7.95;;;;;;;10.49;64.02;101379.75;5074333;28;20032;-73
2023/04/27 19:56:11;;;;;;;12.20;7.43;;;;;;;10.44;62.35;101374.16;5092232;28;20032;-73
2023/04/27 19:58:36;;;;;;;9.93;7.55;;;;;;;10.38;62.01;101366.94;5069744;28;20411;-73
2023/04/27 20:04:23;;;;;;;11.48;8.13;;;;;;;10.37;64.64;101366.09;5092639;28;20812;-73
2023/04/27 20:06:48;;;;;;;11.43;8.30;;;;;;;10.34;62.86;101368.34;5092322;28;20024;-73
2023/04/27 20:09:14;;;;;;;15.13;8.60;;;;;;;10.25;66.10;101362.38;5070660;28;20084;-73
2023/04/27 20:11:39;;;;;;;10.93;7.45;;;;;;;10.29;62.92;101365.47;5073054;28;20278;-73
2023/04/27 20:14:04;;;;;;;13.45;8.35;;;;;;;10.22;64.91;101358.25;5092103;28;20035;-73
2023/04/27 20:16:30;;;;;;;13.93;7.78;;;;;;;10.21;65.40;101361.13;5087596;28;20051;-73
2023/04/27 20:18:55;;;;;;;10.65;6.93;;;;;;;10.19;64.57;101369.31;5074006;28;20032;-71
2023/04/27 20:21:20;;;;;;;13.30;7.30;;;;;;;10.17;65.75;101363.34;5071941;28;20031;-73
2023/04/27 20:23:49;;;;;;;12.98;8.15;;;;;;;10.15;66.62;101361.88;5071659;28;20492;-73
2023/04/27 20:26:14;;;;;;;11.32;8.07;;;;;;;10.16;67.15;101371.56;5091989;28;20488;-73
2023/04/27 20:28:40;;;;;;;12.82;8.07;;;;;;;10.09;65.60;101359.97;5069430;28;20035;-73
2023/04/27 20:34:27;;;;;;;11.30;7.38;;;;;;;10.07;65.12;101360.19;5091808;28;20296;-73
2023/04/27 20:36:52;;;;;;;14.38;8.13;;;;;;;10.05;67.38;101353.38;5091918;28;20024;-73
2023/04/27 20:39:18;;;;;;;11.97;7.10;;;;;;;10.04;66.02;101349.06;5094539;28;20028;-73
2023/04/27 20:41:44;;;;;;;12.50;8.15;;;;;;;9.98;66.92;101342.66;5073117;28;20286;-73
2023/04/27 20:44:10;;;;;;;13.68;7.72;;;;;;;9.98;67.69;101345.34;5095492;28;20161;-73
2023/04/27 20:46:36;;;;;;;13.30;8.18;;;;;;;9.98;66.08;101340.00;5090776;28;20048;-73
2023/04/27 20:49:02;;;;;;;11.88;8.35;;;;;;;9.99;66.70;101338.16;5077462;28;20031;-73
2023/04/27 20:51:28;;;;;;;13.93;7.80;;;;;;;9.96;67.14;101331.34;5077371;28;20127;-73
2023/04/27 20:57:15;;;;;;;14.65;7.53;;;;;;;9.99;66.53;101303.41;5095727;28;20077;-73
2023/04/27 20:59:40;;;;;;;12.60;7.57;;;;;;;9.92;65.47;101301.56;5072714;28;20039;-73
2023/04/27 21:05:27;;;;;;;12.18;7.72;;;;;;;9.87;66.36;101284.47;5095547;28;20089;-72
2023/04/27 21:07:52;;;;;;;13.20;8.07;;;;;;;9.79;66.56;101276.59;5076823;28;20021;-71
2023/04/27 21:10:18;;;;;;;12.77;8.20;;;;;;;9.81;67.97;101280.72;5072072;28;20467;-72
2023/04/27 21:12:43;;;;;;;10.25;6.88;;;;;;;9.76;67.91;101266.31;5076512;28;20274;-72
2023/04/27 21:18:30;;;;;;;11.40;8.25;;;;;;;9.72;66.89;101254.41;5095663;28;20407;-72
2023/04/27 21:20:56;;;;;;;11.68;7.30;;;;;;;9.74;67.57;101257.69;5077018;28;20024;-72
2023/04/27 21:23:21;;;;;;;11.02;7.47;;;;;;;9.71;67.28;101260.75;5072542;28;20135;-72
2023/04/27 21:25:46;;;;;;;13.13;8.48;;;;;;;9.67;69.66;101257.66;5076029;28;20129;-73
2023/04/27 21:28:12;;;;;;;10.43;8.23;;;;;;;9.65;69.11;101254.38;5073785;28;20056;-72
2023/04/27 21:34:01;;;;;;;12.80;7.85;;;;;;;9.61;67.60;101237.94;5090384;28;20040;-72
2023/04/27 21:36:26;;;;;;;12.30;7.45;;;;;;;9.58;67.25;101234.81;5089848;28;20036;-72
2023/04/27 21:38:51;;;;;;;13.80;8.13;;;;;;;9.57;67.81;101231.34;5076414;28;20450;-72
2023/04/27 21:41:17;;;;;;;12.18;7.70;;;;;;;9.56;67.60;101237.69;5072221;28;20479;-73
2023/04/27 21:47:04;;;;;;;10.63;7.28;;;;;;;9.54;68.57;101250.41;5092384;28;20506;-72
2023/04/27 21:49:29;;;;;;;11.18;7.65;;;;;;;9.51;68.85;101232.09;5091951;28;20028;-72
2023/04/27 21:51:55;;;;;;;9.90;7.32;;;;;;;9.50;70.01;101232.31;5076268;28;20063;-72
2023/04/27 21:57:42;;;;;;;13.77;7.63;;;;;;;9.40;71.54;101210.50;5094647;28;20054;-72
2023/04/27 22:00:12;;;;;;;13.05;8.07;;;;;;;9.37;72.21;101219.72;5071764;28;20040;-72
2023/04/27 22:02:38;;;;;;;10.60;7.35;;;;;;;9.35;71.50;101211.09;5076036;28;20400;-72
2023/04/27 22:05:04;;;;;;;12.82;7.85;;;;;;;9.32;71.58;101211.47;5071490;28;20547;-74
2023/04/27 22:10:51;;;;;;;13.25;8.15;;;;;;;9.28;73.22;101211.06;5094366;28;20090;-73
2023/04/27 22:13:16;;;;;;;13.15;8.10;;;;;;;9.20;73.87;101202.38;5076055;28;20055;-73
2023/04/27 22:19:03;;;;;;;11.52;7.65;;;;;;;8.92;75.78;101205.03;5089926;28;20702;-73
2023/04/27 22:21:30;;;;;;;12.82;7.82;;;;;;;8.93;77.37;101199.53;5075985;28;20060;-73
2023/04/27 22:23:55;;;;;;;12.07;7.90;;;;;;;8.97;76.08;101206.13;5071440;28;20500;-73
2023/04/27 22:26:20;;;;;;;14.98;8.75;;;;;;;8.99;79.32;101198.75;5075378;28;20035;-73
2023/04/27 22:28:46;;;;;;;12.10;7.78;;;;;;;8.98;76.47;101196.28;5071077;28;20071;-73
2023/04/27 22:34:33;;;;;;;11.48;8.68;;;;;;;8.53;85.45;101178.91;5088107;28;20533;-72
2023/04/27 22:36:58;;;;;;;11.93;7.97;;;;;;;8.29;86.69;101169.44;5058697;28;20071;-73
2023/04/27 22:42:45;;;;;;;13.55;8.10;;;;;;;7.97;89.94;101168.91;5093767;28;20573;-73
2023/04/27 22:45:11;;;;;;;14.27;7.72;;;;;;;8.13;88.13;101159.88;5093425;28;20028;-73
2023/04/27 22:47:38;;;;;;;12.30;7.88;;;;;;;8.28;85.79;101157.94;5089023;28;20039;-72